KAEX/AEX METAR and TAF weather

Enter ICAO airport designator
Station Type Date Time Source
KAEX METAR 2019/10/16 19:53 UTC NOAA

KAEX 161953Z 35010KT 10SM SCT037 20/12 A3002 RMK AO2 SLP169 T02000117


Station Type Date Time Source
KAEX Decoded METAR 2019/10/16 19:53 UTC NOAA

ALEXANDRIA INTERNATIONAL AIRPORT, LA, United States (KAEX) 31-33N 092-56W 27M
Oct 16, 2019 - 03:53 PM EDT / 2019.10.16 1953 UTC
Wind: from the N (350 degrees) at 12 MPH (10 KT):0
Visibility: 10 mile(s):0
Sky conditions: partly cloudy
Temperature: 68.0 F (20.0 C)
Dew Point: 53.1 F (11.7 C)
Relative Humidity: 58%
Pressure (altimeter): 30.02 in. Hg (1016 hPa)
ob: KAEX 161953Z 35010KT 10SM SCT037 20/12 A3002 RMK AO2 SLP169 T02000117
cycle: 20

Station Type Date Time Source
KAEX TAF 2019/10/16 18:33 UTC NOAA

TAF KAEX 161730Z 1618/1718 01012KT P6SM BKN025
FM161900 01011KT P6SM BKN040
FM170100 VRB03KT P6SM SCT250
FM171500 06007KT P6SM SCT250

Example: see airport list